sensor_id;sensor_type;location;lat;lon;timestamp;P1;durP1;ratioP1;P2;durP2;ratioP2
14326;SDS011;7247;53.330;-1.180;2023-05-10T00:01:55;10.67;;;4.07;;
14326;SDS011;7247;53.330;-1.180;2023-05-10T00:04:22;10.73;;;3.97;;
14326;SDS011;7247;53.330;-1.180;2023-05-10T00:06:52;13.83;;;4.30;;
14326;SDS011;7247;53.330;-1.180;2023-05-10T00:09:18;13.73;;;4.37;;
14326;SDS011;7247;53.330;-1.180;2023-05-10T00:11:45;12.23;;;4.17;;
14326;SDS011;7247;53.330;-1.180;2023-05-10T00:14:12;10.90;;;4.10;;
14326;SDS011;7247;53.330;-1.180;2023-05-10T00:16:39;11.70;;;4.00;;
14326;SDS011;7247;53.330;-1.180;2023-05-10T00:19:05;12.70;;;4.50;;
14326;SDS011;7247;53.330;-1.180;2023-05-10T00:21:32;10.47;;;4.07;;
14326;SDS011;7247;53.330;-1.180;2023-05-10T00:23:58;13.87;;;3.97;;
14326;SDS011;7247;53.330;-1.180;2023-05-10T00:26:25;11.27;;;3.80;;
14326;SDS011;7247;53.330;-1.180;2023-05-10T00:28:51;11.37;;;4.07;;
14326;SDS011;7247;53.330;-1.180;2023-05-10T00:31:19;12.63;;;3.50;;
14326;SDS011;7247;53.330;-1.180;2023-05-10T00:33:46;12.07;;;3.87;;
14326;SDS011;7247;53.330;-1.180;2023-05-10T00:36:12;11.17;;;4.17;;
14326;SDS011;7247;53.330;-1.180;2023-05-10T00:38:38;7.03;;;3.70;;
14326;SDS011;7247;53.330;-1.180;2023-05-10T00:41:05;6.27;;;3.37;;
14326;SDS011;7247;53.330;-1.180;2023-05-10T00:43:31;11.87;;;4.00;;
14326;SDS011;7247;53.330;-1.180;2023-05-10T00:45:58;12.43;;;3.77;;
14326;SDS011;7247;53.330;-1.180;2023-05-10T00:48:26;11.23;;;3.80;;
14326;SDS011;7247;53.330;-1.180;2023-05-10T00:50:52;11.37;;;3.80;;
14326;SDS011;7247;53.330;-1.180;2023-05-10T00:53:18;7.90;;;3.70;;
14326;SDS011;7247;53.330;-1.180;2023-05-10T00:55:45;10.73;;;3.60;;
14326;SDS011;7247;53.330;-1.180;2023-05-10T00:58:11;5.80;;;3.40;;
14326;SDS011;7247;53.330;-1.180;2023-05-10T01:00:39;9.57;;;3.63;;
14326;SDS011;7247;53.330;-1.180;2023-05-10T01:03:08;9.63;;;3.33;;
14326;SDS011;7247;53.330;-1.180;2023-05-10T01:05:36;8.57;;;3.30;;
14326;SDS011;7247;53.330;-1.180;2023-05-10T01:08:02;8.67;;;3.43;;
14326;SDS011;7247;53.330;-1.180;2023-05-10T01:10:29;11.13;;;3.70;;
14326;SDS011;7247;53.330;-1.180;2023-05-10T01:12:55;8.93;;;3.07;;
14326;SDS011;7247;53.330;-1.180;2023-05-10T01:15:22;9.83;;;3.70;;
14326;SDS011;7247;53.330;-1.180;2023-05-10T01:17:48;10.93;;;3.63;;
14326;SDS011;7247;53.330;-1.180;2023-05-10T01:20:15;9.83;;;3.70;;
14326;SDS011;7247;53.330;-1.180;2023-05-10T01:25:31;10.03;;;3.37;;
14326;SDS011;7247;53.330;-1.180;2023-05-10T01:33:43;12.03;;;4.23;;
14326;SDS011;7247;53.330;-1.180;2023-05-10T01:36:14;13.43;;;3.63;;
14326;SDS011;7247;53.330;-1.180;2023-05-10T01:38:44;10.17;;;3.93;;
14326;SDS011;7247;53.330;-1.180;2023-05-10T01:41:16;11.93;;;4.30;;
14326;SDS011;7247;53.330;-1.180;2023-05-10T01:43:45;15.40;;;4.37;;
14326;SDS011;7247;53.330;-1.180;2023-05-10T01:46:16;10.00;;;4.30;;
14326;SDS011;7247;53.330;-1.180;2023-05-10T01:48:47;7.40;;;3.93;;
14326;SDS011;7247;53.330;-1.180;2023-05-10T01:51:14;15.53;;;4.50;;
14326;SDS011;7247;53.330;-1.180;2023-05-10T01:53:42;10.83;;;4.93;;
14326;SDS011;7247;53.330;-1.180;2023-05-10T01:56:09;14.57;;;4.97;;
14326;SDS011;7247;53.330;-1.180;2023-05-10T01:58:36;16.33;;;5.50;;
14326;SDS011;7247;53.330;-1.180;2023-05-10T02:01:05;15.60;;;6.07;;
14326;SDS011;7247;53.330;-1.180;2023-05-10T02:03:33;16.37;;;6.37;;
14326;SDS011;7247;53.330;-1.180;2023-05-10T02:06:02;17.80;;;7.23;;
14326;SDS011;7247;53.330;-1.180;2023-05-10T02:08:29;19.13;;;7.40;;
14326;SDS011;7247;53.330;-1.180;2023-05-10T02:10:56;18.03;;;7.13;;
14326;SDS011;7247;53.330;-1.180;2023-05-10T02:13:23;14.70;;;6.83;;
14326;SDS011;7247;53.330;-1.180;2023-05-10T02:15:51;13.00;;;6.13;;
14326;SDS011;7247;53.330;-1.180;2023-05-10T02:18:17;14.90;;;5.73;;
14326;SDS011;7247;53.330;-1.180;2023-05-10T02:20:44;16.23;;;5.73;;
14326;SDS011;7247;53.330;-1.180;2023-05-10T02:23:13;16.50;;;5.43;;
14326;SDS011;7247;53.330;-1.180;2023-05-10T02:25:39;13.03;;;5.00;;
14326;SDS011;7247;53.330;-1.180;2023-05-10T02:28:06;11.13;;;4.67;;
14326;SDS011;7247;53.330;-1.180;2023-05-10T02:30:33;11.97;;;4.23;;
14326;SDS011;7247;53.330;-1.180;2023-05-10T02:33:00;15.90;;;4.53;;
14326;SDS011;7247;53.330;-1.180;2023-05-10T02:35:28;9.70;;;3.60;;
14326;SDS011;7247;53.330;-1.180;2023-05-10T02:37:55;15.87;;;4.17;;
14326;SDS011;7247;53.330;-1.180;2023-05-10T02:40:24;15.93;;;4.97;;
14326;SDS011;7247;53.330;-1.180;2023-05-10T02:42:52;13.37;;;3.97;;
14326;SDS011;7247;53.330;-1.180;2023-05-10T02:45:21;12.57;;;3.83;;
14326;SDS011;7247;53.330;-1.180;2023-05-10T02:47:49;11.17;;;4.23;;
14326;SDS011;7247;53.330;-1.180;2023-05-10T02:50:16;13.63;;;4.20;;
14326;SDS011;7247;53.330;-1.180;2023-05-10T02:52:44;14.00;;;4.40;;
14326;SDS011;7247;53.330;-1.180;2023-05-10T02:55:13;10.67;;;4.03;;
14326;SDS011;7247;53.330;-1.180;2023-05-10T02:57:43;19.30;;;4.53;;
14326;SDS011;7247;53.330;-1.180;2023-05-10T03:00:13;13.03;;;4.30;;
14326;SDS011;7247;53.330;-1.180;2023-05-10T03:02:39;12.47;;;4.10;;
14326;SDS011;7247;53.330;-1.180;2023-05-10T03:05:06;12.53;;;4.17;;
14326;SDS011;7247;53.330;-1.180;2023-05-10T03:07:33;14.17;;;4.03;;
14326;SDS011;7247;53.330;-1.180;2023-05-10T03:10:00;10.83;;;3.93;;
14326;SDS011;7247;53.330;-1.180;2023-05-10T03:12:28;12.10;;;4.20;;
14326;SDS011;7247;53.330;-1.180;2023-05-10T03:15:00;15.30;;;4.30;;
14326;SDS011;7247;53.330;-1.180;2023-05-10T03:17:29;14.03;;;4.30;;
14326;SDS011;7247;53.330;-1.180;2023-05-10T03:19:56;13.57;;;4.20;;
14326;SDS011;7247;53.330;-1.180;2023-05-10T03:22:24;15.30;;;5.03;;
14326;SDS011;7247;53.330;-1.180;2023-05-10T03:24:53;8.87;;;4.13;;
14326;SDS011;7247;53.330;-1.180;2023-05-10T03:27:22;13.67;;;4.90;;
14326;SDS011;7247;53.330;-1.180;2023-05-10T03:29:48;11.97;;;4.60;;
14326;SDS011;7247;53.330;-1.180;2023-05-10T03:32:17;12.23;;;4.10;;
14326;SDS011;7247;53.330;-1.180;2023-05-10T03:34:44;15.40;;;4.70;;
14326;SDS011;7247;53.330;-1.180;2023-05-10T03:37:10;15.13;;;4.90;;
14326;SDS011;7247;53.330;-1.180;2023-05-10T03:39:37;15.03;;;5.17;;
14326;SDS011;7247;53.330;-1.180;2023-05-10T03:42:03;14.13;;;4.83;;
14326;SDS011;7247;53.330;-1.180;2023-05-10T03:44:30;12.10;;;4.70;;
14326;SDS011;7247;53.330;-1.180;2023-05-10T03:46:58;13.07;;;5.10;;
14326;SDS011;7247;53.330;-1.180;2023-05-10T03:49:26;10.77;;;4.60;;
14326;SDS011;7247;53.330;-1.180;2023-05-10T03:51:52;18.63;;;5.13;;
14326;SDS011;7247;53.330;-1.180;2023-05-10T03:54:18;12.10;;;5.50;;
14326;SDS011;7247;53.330;-1.180;2023-05-10T03:56:45;19.33;;;5.63;;
14326;SDS011;7247;53.330;-1.180;2023-05-10T03:59:12;19.50;;;6.10;;
14326;SDS011;7247;53.330;-1.180;2023-05-10T04:01:39;15.67;;;5.67;;
14326;SDS011;7247;53.330;-1.180;2023-05-10T04:04:05;17.20;;;5.67;;
14326;SDS011;7247;53.330;-1.180;2023-05-10T04:06:33;11.70;;;5.17;;
14326;SDS011;7247;53.330;-1.180;2023-05-10T04:09:00;16.50;;;6.20;;
14326;SDS011;7247;53.330;-1.180;2023-05-10T04:11:29;14.50;;;5.60;;
14326;SDS011;7247;53.330;-1.180;2023-05-10T04:13:55;14.57;;;5.73;;
14326;SDS011;7247;53.330;-1.180;2023-05-10T04:16:21;15.43;;;5.77;;
14326;SDS011;7247;53.330;-1.180;2023-05-10T04:18:48;12.80;;;5.23;;
14326;SDS011;7247;53.330;-1.180;2023-05-10T04:21:14;18.63;;;5.80;;
14326;SDS011;7247;53.330;-1.180;2023-05-10T04:23:42;15.57;;;6.13;;
14326;SDS011;7247;53.330;-1.180;2023-05-10T04:26:09;14.93;;;5.73;;
14326;SDS011;7247;53.330;-1.180;2023-05-10T04:28:35;16.93;;;6.10;;
14326;SDS011;7247;53.330;-1.180;2023-05-10T04:31:02;14.37;;;5.63;;
14326;SDS011;7247;53.330;-1.180;2023-05-10T04:33:28;14.33;;;5.70;;
14326;SDS011;7247;53.330;-1.180;2023-05-10T04:35:55;18.33;;;6.40;;
14326;SDS011;7247;53.330;-1.180;2023-05-10T04:38:21;15.90;;;6.00;;
14326;SDS011;7247;53.330;-1.180;2023-05-10T04:40:49;17.47;;;5.47;;
14326;SDS011;7247;53.330;-1.180;2023-05-10T04:43:16;15.27;;;6.33;;
14326;SDS011;7247;53.330;-1.180;2023-05-10T04:45:42;15.60;;;5.93;;
14326;SDS011;7247;53.330;-1.180;2023-05-10T04:48:08;16.73;;;5.80;;
14326;SDS011;7247;53.330;-1.180;2023-05-10T04:50:35;13.87;;;5.53;;
14326;SDS011;7247;53.330;-1.180;2023-05-10T04:53:01;12.43;;;6.03;;
14326;SDS011;7247;53.330;-1.180;2023-05-10T04:55:28;14.17;;;5.70;;
14326;SDS011;7247;53.330;-1.180;2023-05-10T04:57:56;17.87;;;5.77;;
14326;SDS011;7247;53.330;-1.180;2023-05-10T05:00:24;13.57;;;6.20;;
14326;SDS011;7247;53.330;-1.180;2023-05-10T05:02:50;13.33;;;6.47;;
14326;SDS011;7247;53.330;-1.180;2023-05-10T05:05:16;14.77;;;5.77;;
14326;SDS011;7247;53.330;-1.180;2023-05-10T05:07:43;8.33;;;5.20;;
14326;SDS011;7247;53.330;-1.180;2023-05-10T05:10:09;11.63;;;5.80;;
14326;SDS011;7247;53.330;-1.180;2023-05-10T05:12:36;15.70;;;5.50;;
14326;SDS011;7247;53.330;-1.180;2023-05-10T05:15:04;14.57;;;5.77;;
14326;SDS011;7247;53.330;-1.180;2023-05-10T05:17:30;10.57;;;5.20;;
14326;SDS011;7247;53.330;-1.180;2023-05-10T05:19:57;17.50;;;6.33;;
14326;SDS011;7247;53.330;-1.180;2023-05-10T05:22:23;12.27;;;5.20;;
14326;SDS011;7247;53.330;-1.180;2023-05-10T05:24:52;13.57;;;5.73;;
14326;SDS011;7247;53.330;-1.180;2023-05-10T05:27:18;13.10;;;5.87;;
14326;SDS011;7247;53.330;-1.180;2023-05-10T05:29:46;14.77;;;5.70;;
14326;SDS011;7247;53.330;-1.180;2023-05-10T05:32:13;11.70;;;5.20;;
14326;SDS011;7247;53.330;-1.180;2023-05-10T05:34:40;9.97;;;5.20;;
14326;SDS011;7247;53.330;-1.180;2023-05-10T05:37:06;10.30;;;5.03;;
14326;SDS011;7247;53.330;-1.180;2023-05-10T05:39:35;12.57;;;5.70;;
14326;SDS011;7247;53.330;-1.180;2023-05-10T05:42:02;11.77;;;5.37;;
14326;SDS011;7247;53.330;-1.180;2023-05-10T05:44:28;13.67;;;5.53;;
14326;SDS011;7247;53.330;-1.180;2023-05-10T05:46:55;14.03;;;6.40;;
14326;SDS011;7247;53.330;-1.180;2023-05-10T05:49:23;10.93;;;6.17;;
14326;SDS011;7247;53.330;-1.180;2023-05-10T05:51:49;10.97;;;6.40;;
14326;SDS011;7247;53.330;-1.180;2023-05-10T05:54:16;14.73;;;6.47;;
14326;SDS011;7247;53.330;-1.180;2023-05-10T05:56:42;12.17;;;6.80;;
14326;SDS011;7247;53.330;-1.180;2023-05-10T05:59:09;16.27;;;6.93;;
14326;SDS011;7247;53.330;-1.180;2023-05-10T06:01:35;11.50;;;6.63;;
14326;SDS011;7247;53.330;-1.180;2023-05-10T06:04:02;11.00;;;6.30;;
14326;SDS011;7247;53.330;-1.180;2023-05-10T06:06:30;13.17;;;6.30;;
14326;SDS011;7247;53.330;-1.180;2023-05-10T06:08:57;12.80;;;6.07;;
14326;SDS011;7247;53.330;-1.180;2023-05-10T06:11:23;11.67;;;6.83;;
14326;SDS011;7247;53.330;-1.180;2023-05-10T06:13:50;16.10;;;6.83;;
14326;SDS011;7247;53.330;-1.180;2023-05-10T06:16:16;16.33;;;6.30;;
14326;SDS011;7247;53.330;-1.180;2023-05-10T06:18:43;11.53;;;6.13;;
14326;SDS011;7247;53.330;-1.180;2023-05-10T06:21:09;14.10;;;5.90;;
14326;SDS011;7247;53.330;-1.180;2023-05-10T06:23:37;16.33;;;6.00;;
14326;SDS011;7247;53.330;-1.180;2023-05-10T06:26:03;13.03;;;6.73;;
14326;SDS011;7247;53.330;-1.180;2023-05-10T06:28:30;14.87;;;7.13;;
14326;SDS011;7247;53.330;-1.180;2023-05-10T06:30:58;14.03;;;6.47;;
14326;SDS011;7247;53.330;-1.180;2023-05-10T06:33:24;11.60;;;6.10;;
14326;SDS011;7247;53.330;-1.180;2023-05-10T06:35:51;15.07;;;6.00;;
14326;SDS011;7247;53.330;-1.180;2023-05-10T06:38:18;11.57;;;5.53;;
14326;SDS011;7247;53.330;-1.180;2023-05-10T06:40:45;9.93;;;4.80;;
14326;SDS011;7247;53.330;-1.180;2023-05-10T06:43:12;13.73;;;6.27;;
14326;SDS011;7247;53.330;-1.180;2023-05-10T06:45:38;12.00;;;5.43;;
14326;SDS011;7247;53.330;-1.180;2023-05-10T06:48:05;10.47;;;5.57;;
14326;SDS011;7247;53.330;-1.180;2023-05-10T06:50:32;9.73;;;5.13;;
14326;SDS011;7247;53.330;-1.180;2023-05-10T06:52:58;10.30;;;5.20;;
14326;SDS011;7247;53.330;-1.180;2023-05-10T06:55:25;9.43;;;4.83;;
14326;SDS011;7247;53.330;-1.180;2023-05-10T06:57:53;13.67;;;5.90;;
14326;SDS011;7247;53.330;-1.180;2023-05-10T07:00:19;12.93;;;5.67;;
14326;SDS011;7247;53.330;-1.180;2023-05-10T07:02:46;11.57;;;5.63;;
14326;SDS011;7247;53.330;-1.180;2023-05-10T07:05:12;10.87;;;5.13;;
14326;SDS011;7247;53.330;-1.180;2023-05-10T07:07:40;11.43;;;5.70;;
14326;SDS011;7247;53.330;-1.180;2023-05-10T07:10:06;11.03;;;5.33;;
14326;SDS011;7247;53.330;-1.180;2023-05-10T07:12:33;9.93;;;4.90;;
14326;SDS011;7247;53.330;-1.180;2023-05-10T07:15:01;11.37;;;5.10;;
14326;SDS011;7247;53.330;-1.180;2023-05-10T07:17:28;9.10;;;4.73;;
14326;SDS011;7247;53.330;-1.180;2023-05-10T07:19:54;10.83;;;4.80;;
14326;SDS011;7247;53.330;-1.180;2023-05-10T07:22:20;9.67;;;5.00;;
14326;SDS011;7247;53.330;-1.180;2023-05-10T07:24:47;10.93;;;4.93;;
14326;SDS011;7247;53.330;-1.180;2023-05-10T07:27:13;8.97;;;4.60;;
14326;SDS011;7247;53.330;-1.180;2023-05-10T07:29:40;8.07;;;4.37;;
14326;SDS011;7247;53.330;-1.180;2023-05-10T07:32:07;10.13;;;4.70;;
14326;SDS011;7247;53.330;-1.180;2023-05-10T07:34:34;10.57;;;4.90;;
14326;SDS011;7247;53.330;-1.180;2023-05-10T07:37:00;10.83;;;4.60;;
14326;SDS011;7247;53.330;-1.180;2023-05-10T07:39:27;9.47;;;4.83;;
14326;SDS011;7247;53.330;-1.180;2023-05-10T07:41:53;8.90;;;4.30;;
14326;SDS011;7247;53.330;-1.180;2023-05-10T07:44:20;10.57;;;4.53;;
14326;SDS011;7247;53.330;-1.180;2023-05-10T07:46:46;9.77;;;4.17;;
14326;SDS011;7247;53.330;-1.180;2023-05-10T07:49:14;7.73;;;3.90;;
14326;SDS011;7247;53.330;-1.180;2023-05-10T07:51:41;7.80;;;4.13;;
14326;SDS011;7247;53.330;-1.180;2023-05-10T07:54:08;7.67;;;3.70;;
14326;SDS011;7247;53.330;-1.180;2023-05-10T07:56:34;8.20;;;3.83;;
14326;SDS011;7247;53.330;-1.180;2023-05-10T07:59:01;7.03;;;3.87;;
14326;SDS011;7247;53.330;-1.180;2023-05-10T08:01:29;6.67;;;3.70;;
14326;SDS011;7247;53.330;-1.180;2023-05-10T08:03:56;7.47;;;3.53;;
14326;SDS011;7247;53.330;-1.180;2023-05-10T08:06:24;6.77;;;3.53;;
14326;SDS011;7247;53.330;-1.180;2023-05-10T08:08:52;8.00;;;3.47;;
14326;SDS011;7247;53.330;-1.180;2023-05-10T08:11:19;7.23;;;3.63;;
14326;SDS011;7247;53.330;-1.180;2023-05-10T08:13:46;8.03;;;3.33;;
14326;SDS011;7247;53.330;-1.180;2023-05-10T08:16:12;7.70;;;3.00;;
14326;SDS011;7247;53.330;-1.180;2023-05-10T08:18:39;8.20;;;2.77;;
14326;SDS011;7247;53.330;-1.180;2023-05-10T08:21:06;5.43;;;2.67;;
14326;SDS011;7247;53.330;-1.180;2023-05-10T08:23:33;6.43;;;2.77;;
14326;SDS011;7247;53.330;-1.180;2023-05-10T08:26:00;8.83;;;2.80;;
14326;SDS011;7247;53.330;-1.180;2023-05-10T08:28:26;5.07;;;2.93;;
14326;SDS011;7247;53.330;-1.180;2023-05-10T08:30:53;6.20;;;2.97;;
14326;SDS011;7247;53.330;-1.180;2023-05-10T08:33:19;6.20;;;2.43;;
14326;SDS011;7247;53.330;-1.180;2023-05-10T08:35:46;3.87;;;2.53;;
14326;SDS011;7247;53.330;-1.180;2023-05-10T08:38:12;7.23;;;3.00;;
14326;SDS011;7247;53.330;-1.180;2023-05-10T08:40:41;6.80;;;2.70;;
14326;SDS011;7247;53.330;-1.180;2023-05-10T08:43:08;5.87;;;2.43;;
14326;SDS011;7247;53.330;-1.180;2023-05-10T08:45:36;6.30;;;2.70;;
14326;SDS011;7247;53.330;-1.180;2023-05-10T08:48:04;5.97;;;2.70;;
14326;SDS011;7247;53.330;-1.180;2023-05-10T08:50:31;6.63;;;2.53;;
14326;SDS011;7247;53.330;-1.180;2023-05-10T08:52:58;8.23;;;3.03;;
14326;SDS011;7247;53.330;-1.180;2023-05-10T08:55:26;9.10;;;2.77;;
14326;SDS011;7247;53.330;-1.180;2023-05-10T08:57:54;4.77;;;2.23;;
14326;SDS011;7247;53.330;-1.180;2023-05-10T09:00:20;5.43;;;2.80;;
14326;SDS011;7247;53.330;-1.180;2023-05-10T09:02:48;7.03;;;2.93;;
14326;SDS011;7247;53.330;-1.180;2023-05-10T09:05:15;7.90;;;2.73;;
14326;SDS011;7247;53.330;-1.180;2023-05-10T09:07:42;4.97;;;2.87;;
14326;SDS011;7247;53.330;-1.180;2023-05-10T09:10:09;6.77;;;2.60;;
14326;SDS011;7247;53.330;-1.180;2023-05-10T09:12:36;6.03;;;2.93;;
14326;SDS011;7247;53.330;-1.180;2023-05-10T09:15:05;4.07;;;2.50;;
14326;SDS011;7247;53.330;-1.180;2023-05-10T09:17:32;7.80;;;3.23;;
14326;SDS011;7247;53.330;-1.180;2023-05-10T09:20:00;6.40;;;2.67;;
14326;SDS011;7247;53.330;-1.180;2023-05-10T09:22:26;5.50;;;2.60;;
14326;SDS011;7247;53.330;-1.180;2023-05-10T09:25:03;6.00;;;2.90;;
14326;SDS011;7247;53.330;-1.180;2023-05-10T09:27:29;7.50;;;3.77;;
14326;SDS011;7247;53.330;-1.180;2023-05-10T09:29:56;7.07;;;4.00;;
14326;SDS011;7247;53.330;-1.180;2023-05-10T09:32:24;5.07;;;4.47;;
14326;SDS011;7247;53.330;-1.180;2023-05-10T09:35:05;6.50;;;4.37;;
14326;SDS011;7247;53.330;-1.180;2023-05-10T09:37:32;7.70;;;4.40;;
14326;SDS011;7247;53.330;-1.180;2023-05-10T09:39:58;8.10;;;4.07;;
14326;SDS011;7247;53.330;-1.180;2023-05-10T09:42:24;6.00;;;3.13;;
14326;SDS011;7247;53.330;-1.180;2023-05-10T09:44:51;6.37;;;3.23;;
14326;SDS011;7247;53.330;-1.180;2023-05-10T09:47:17;6.07;;;2.73;;
14326;SDS011;7247;53.330;-1.180;2023-05-10T09:49:46;5.53;;;2.33;;
14326;SDS011;7247;53.330;-1.180;2023-05-10T09:52:15;5.30;;;2.13;;
14326;SDS011;7247;53.330;-1.180;2023-05-10T09:54:44;6.67;;;2.50;;
14326;SDS011;7247;53.330;-1.180;2023-05-10T09:57:18;7.33;;;2.27;;
14326;SDS011;7247;53.330;-1.180;2023-05-10T09:59:45;6.93;;;2.63;;
14326;SDS011;7247;53.330;-1.180;2023-05-10T10:02:11;6.10;;;2.23;;
14326;SDS011;7247;53.330;-1.180;2023-05-10T10:04:38;5.20;;;1.93;;
14326;SDS011;7247;53.330;-1.180;2023-05-10T10:07:07;4.80;;;2.17;;
14326;SDS011;7247;53.330;-1.180;2023-05-10T10:09:33;6.63;;;2.27;;
14326;SDS011;7247;53.330;-1.180;2023-05-10T10:12:00;3.33;;;1.80;;
14326;SDS011;7247;53.330;-1.180;2023-05-10T10:14:27;5.50;;;2.07;;
14326;SDS011;7247;53.330;-1.180;2023-05-10T10:16:54;7.80;;;2.30;;
14326;SDS011;7247;53.330;-1.180;2023-05-10T10:19:21;4.27;;;1.60;;
14326;SDS011;7247;53.330;-1.180;2023-05-10T10:21:48;5.00;;;1.70;;
14326;SDS011;7247;53.330;-1.180;2023-05-10T10:24:16;4.67;;;1.80;;
14326;SDS011;7247;53.330;-1.180;2023-05-10T10:26:43;7.30;;;1.57;;
14326;SDS011;7247;53.330;-1.180;2023-05-10T10:29:13;3.63;;;1.80;;
14326;SDS011;7247;53.330;-1.180;2023-05-10T10:31:45;4.23;;;1.87;;
14326;SDS011;7247;53.330;-1.180;2023-05-10T10:34:17;5.87;;;2.57;;
14326;SDS011;7247;53.330;-1.180;2023-05-10T10:36:47;6.33;;;2.37;;
14326;SDS011;7247;53.330;-1.180;2023-05-10T10:39:14;4.63;;;1.80;;
14326;SDS011;7247;53.330;-1.180;2023-05-10T10:41:48;4.67;;;1.97;;
14326;SDS011;7247;53.330;-1.180;2023-05-10T10:44:34;7.47;;;2.30;;
14326;SDS011;7247;53.330;-1.180;2023-05-10T10:47:02;4.77;;;1.90;;
14326;SDS011;7247;53.330;-1.180;2023-05-10T10:49:31;5.57;;;2.27;;
14326;SDS011;7247;53.330;-1.180;2023-05-10T10:52:21;4.50;;;2.20;;
14326;SDS011;7247;53.330;-1.180;2023-05-10T10:54:51;4.63;;;1.80;;
14326;SDS011;7247;53.330;-1.180;2023-05-10T10:57:19;4.83;;;2.07;;
14326;SDS011;7247;53.330;-1.180;2023-05-10T10:59:47;3.97;;;2.10;;
14326;SDS011;7247;53.330;-1.180;2023-05-10T11:02:32;4.67;;;1.87;;
14326;SDS011;7247;53.330;-1.180;2023-05-10T11:04:59;5.50;;;2.10;;
14326;SDS011;7247;53.330;-1.180;2023-05-10T11:07:25;4.53;;;1.70;;
14326;SDS011;7247;53.330;-1.180;2023-05-10T11:09:52;3.10;;;1.87;;
14326;SDS011;7247;53.330;-1.180;2023-05-10T11:12:20;5.83;;;2.10;;
14326;SDS011;7247;53.330;-1.180;2023-05-10T11:14:49;3.17;;;1.73;;
14326;SDS011;7247;53.330;-1.180;2023-05-10T11:17:25;4.77;;;1.90;;
14326;SDS011;7247;53.330;-1.180;2023-05-10T11:20:08;4.40;;;1.80;;
14326;SDS011;7247;53.330;-1.180;2023-05-10T11:22:49;2.67;;;1.80;;
14326;SDS011;7247;53.330;-1.180;2023-05-10T11:25:15;3.97;;;1.80;;
14326;SDS011;7247;53.330;-1.180;2023-05-10T11:27:43;3.27;;;1.73;;
14326;SDS011;7247;53.330;-1.180;2023-05-10T11:30:10;5.47;;;1.60;;
14326;SDS011;7247;53.330;-1.180;2023-05-10T11:32:37;4.00;;;1.70;;
14326;SDS011;7247;53.330;-1.180;2023-05-10T11:35:06;3.67;;;1.90;;
14326;SDS011;7247;53.330;-1.180;2023-05-10T11:37:33;4.60;;;1.80;;
14326;SDS011;7247;53.330;-1.180;2023-05-10T11:39:59;4.27;;;2.03;;
14326;SDS011;7247;53.330;-1.180;2023-05-10T11:42:27;3.93;;;2.20;;
14326;SDS011;7247;53.330;-1.180;2023-05-10T11:44:54;5.23;;;2.07;;
14326;SDS011;7247;53.330;-1.180;2023-05-10T11:47:21;3.17;;;1.73;;
14326;SDS011;7247;53.330;-1.180;2023-05-10T11:49:47;3.73;;;1.73;;
14326;SDS011;7247;53.330;-1.180;2023-05-10T11:52:14;3.83;;;1.90;;
14326;SDS011;7247;53.330;-1.180;2023-05-10T11:54:44;1.90;;;1.43;;
14326;SDS011;7247;53.330;-1.180;2023-05-10T11:57:11;4.20;;;1.57;;
14326;SDS011;7247;53.330;-1.180;2023-05-10T11:59:37;3.77;;;1.70;;
14326;SDS011;7247;53.330;-1.180;2023-05-10T12:02:05;3.83;;;1.80;;
14326;SDS011;7247;53.330;-1.180;2023-05-10T12:04:31;3.22;;;1.70;;
14326;SDS011;7247;53.330;-1.180;2023-05-10T12:06:58;5.17;;;1.70;;
14326;SDS011;7247;53.330;-1.180;2023-05-10T12:09:25;2.23;;;1.50;;
14326;SDS011;7247;53.330;-1.180;2023-05-10T12:11:54;3.83;;;1.60;;
14326;SDS011;7247;53.330;-1.180;2023-05-10T12:14:21;3.60;;;1.60;;
14326;SDS011;7247;53.330;-1.180;2023-05-10T12:16:49;2.83;;;1.43;;
14326;SDS011;7247;53.330;-1.180;2023-05-10T12:19:19;3.13;;;1.80;;
14326;SDS011;7247;53.330;-1.180;2023-05-10T12:21:46;2.40;;;1.50;;
14326;SDS011;7247;53.330;-1.180;2023-05-10T12:24:13;5.40;;;1.60;;
14326;SDS011;7247;53.330;-1.180;2023-05-10T12:26:41;2.90;;;1.60;;
14326;SDS011;7247;53.330;-1.180;2023-05-10T12:29:11;3.80;;;1.43;;
14326;SDS011;7247;53.330;-1.180;2023-05-10T12:31:48;2.70;;;1.50;;
14326;SDS011;7247;53.330;-1.180;2023-05-10T12:34:23;3.17;;;1.60;;
14326;SDS011;7247;53.330;-1.180;2023-05-10T12:36:50;2.43;;;1.30;;
14326;SDS011;7247;53.330;-1.180;2023-05-10T12:39:16;4.57;;;1.43;;
14326;SDS011;7247;53.330;-1.180;2023-05-10T12:41:42;3.57;;;1.30;;
14326;SDS011;7247;53.330;-1.180;2023-05-10T12:44:09;1.67;;;1.30;;
14326;SDS011;7247;53.330;-1.180;2023-05-10T12:46:35;1.83;;;1.27;;
14326;SDS011;7247;53.330;-1.180;2023-05-10T12:49:02;2.03;;;1.37;;
14326;SDS011;7247;53.330;-1.180;2023-05-10T12:51:29;1.80;;;1.40;;
14326;SDS011;7247;53.330;-1.180;2023-05-10T12:53:56;2.33;;;1.40;;
14326;SDS011;7247;53.330;-1.180;2023-05-10T12:56:24;5.17;;;1.53;;
14326;SDS011;7247;53.330;-1.180;2023-05-10T12:58:51;2.43;;;1.40;;
14326;SDS011;7247;53.330;-1.180;2023-05-10T13:01:18;3.47;;;1.43;;
14326;SDS011;7247;53.330;-1.180;2023-05-10T13:03:44;2.07;;;1.40;;
14326;SDS011;7247;53.330;-1.180;2023-05-10T13:06:10;2.33;;;1.80;;
14326;SDS011;7247;53.330;-1.180;2023-05-10T13:08:39;2.07;;;1.83;;
14326;SDS011;7247;53.330;-1.180;2023-05-10T13:11:06;5.97;;;2.30;;
14326;SDS011;7247;53.330;-1.180;2023-05-10T13:13:32;4.30;;;2.50;;
14326;SDS011;7247;53.330;-1.180;2023-05-10T13:15:59;4.07;;;2.70;;
14326;SDS011;7247;53.330;-1.180;2023-05-10T13:18:25;3.83;;;2.63;;
14326;SDS011;7247;53.330;-1.180;2023-05-10T13:20:52;3.00;;;2.33;;
14326;SDS011;7247;53.330;-1.180;2023-05-10T13:23:19;4.33;;;2.57;;
14326;SDS011;7247;53.330;-1.180;2023-05-10T13:25:47;2.90;;;2.50;;
14326;SDS011;7247;53.330;-1.180;2023-05-10T13:28:13;5.07;;;2.30;;
14326;SDS011;7247;53.330;-1.180;2023-05-10T13:30:40;4.37;;;2.20;;
14326;SDS011;7247;53.330;-1.180;2023-05-10T13:33:06;2.60;;;1.97;;
14326;SDS011;7247;53.330;-1.180;2023-05-10T13:35:33;1.93;;;1.80;;
14326;SDS011;7247;53.330;-1.180;2023-05-10T13:37:59;2.30;;;2.00;;
14326;SDS011;7247;53.330;-1.180;2023-05-10T13:40:25;2.50;;;1.97;;
14326;SDS011;7247;53.330;-1.180;2023-05-10T13:42:54;1.80;;;1.70;;
14326;SDS011;7247;53.330;-1.180;2023-05-10T13:45:20;2.70;;;1.50;;
14326;SDS011;7247;53.330;-1.180;2023-05-10T13:47:47;1.77;;;1.67;;
14326;SDS011;7247;53.330;-1.180;2023-05-10T13:50:13;1.67;;;1.50;;
14326;SDS011;7247;53.330;-1.180;2023-05-10T13:52:39;1.97;;;1.40;;
14326;SDS011;7247;53.330;-1.180;2023-05-10T13:55:06;1.63;;;1.40;;
14326;SDS011;7247;53.330;-1.180;2023-05-10T13:57:33;3.30;;;1.43;;
14326;SDS011;7247;53.330;-1.180;2023-05-10T14:00:02;1.40;;;1.30;;
14326;SDS011;7247;53.330;-1.180;2023-05-10T14:02:29;1.93;;;1.73;;
14326;SDS011;7247;53.330;-1.180;2023-05-10T14:04:55;2.53;;;1.80;;
14326;SDS011;7247;53.330;-1.180;2023-05-10T14:07:21;1.87;;;1.40;;
14326;SDS011;7247;53.330;-1.180;2023-05-10T14:09:48;3.30;;;1.70;;
14326;SDS011;7247;53.330;-1.180;2023-05-10T14:12:14;2.43;;;1.70;;
14326;SDS011;7247;53.330;-1.180;2023-05-10T14:14:41;2.20;;;1.73;;
14326;SDS011;7247;53.330;-1.180;2023-05-10T14:17:09;2.10;;;1.50;;
14326;SDS011;7247;53.330;-1.180;2023-05-10T14:19:35;1.93;;;1.27;;
14326;SDS011;7247;53.330;-1.180;2023-05-10T14:22:01;2.60;;;1.57;;
14326;SDS011;7247;53.330;-1.180;2023-05-10T14:24:28;2.83;;;1.57;;
14326;SDS011;7247;53.330;-1.180;2023-05-10T14:26:54;2.83;;;1.60;;
14326;SDS011;7247;53.330;-1.180;2023-05-10T14:29:21;1.20;;;1.00;;
14326;SDS011;7247;53.330;-1.180;2023-05-10T14:31:47;1.43;;;1.00;;
14326;SDS011;7247;53.330;-1.180;2023-05-10T14:34:15;2.83;;;1.03;;
14326;SDS011;7247;53.330;-1.180;2023-05-10T14:36:41;1.20;;;0.70;;
14326;SDS011;7247;53.330;-1.180;2023-05-10T14:39:08;1.33;;;0.50;;
14326;SDS011;7247;53.330;-1.180;2023-05-10T14:41:35;0.60;;;0.60;;
14326;SDS011;7247;53.330;-1.180;2023-05-10T14:44:02;2.03;;;0.60;;
14326;SDS011;7247;53.330;-1.180;2023-05-10T14:46:29;0.50;;;0.43;;
14326;SDS011;7247;53.330;-1.180;2023-05-10T14:48:55;0.73;;;0.60;;
14326;SDS011;7247;53.330;-1.180;2023-05-10T14:51:23;0.77;;;0.57;;